Raleigh, NC

5:50 AM EDT on April 26, 2015 (GMT -0400)
NC State Area | | Change Station
CLOSE
Current Station
Personal Weather Station
Location: Raleigh, NC
Elevation: 430 ft
Nearby Weather Stations

Elev 430 ft 35.80 °N, 78.67 °W | Updated 18 hours ago

Overcast
Overcast
48 °F
Feels Like 48 °F
N
4
Wind Variable Wind from NE
Gusts mph

Today
High -- | Low -- °F
--% Chance of Precip.
Yesterday
High -- | Low -- °F
Precip. -- in
6:28 AM 7:57 PM
First Quarter, 54% visible
Pressure 29.59 in
Visibility 3.0 miles
Clouds Overcast 500 ft
Dew Point 46 °F
Humidity 93%
Rainfall in
Snow Depth Not available.
UV 0 out of 12
Pollen 6.80 out of 12
Air Quality Not available.
Flu Activity Sporadic
METAR KRDU 260851Z 05006KT 3SM BR OVC005 08/07 A2959 RMK AO2 SFC VIS 5 SLP019 T00780067 58014 $

More Conditions Fewer Conditions

Pressure 29.59 in
Visibility 3.0 miles
Clouds Overcast 500 ft
Dew Point 46 °F
Humidity 93%
Rainfall in
Snow Depth Not available.
UV 0 out of 12
Pollen 6.80 out of 12
Air Quality Not available.
Flu Activity Sporadic
METAR KRDU 260851Z 05006KT 3SM BR OVC005 08/07 A2959 RMK AO2 SFC VIS 5 SLP019 T00780067 58014 $

More Conditions Fewer Conditions

The full scope of the disaster following a powerful 7.8-magnitude earthquake in Nepal may not come into view for days, but global charities are already sending emergency aid. Click to see how you can help.

10-Day Weather Forecast

Almanac

Astronomy

Apr. 26, 2015 Rise Set
Actual Time
Civil Twilight
Nautical Twilight
Astronomical Twilight
Moon
Length of Visible Light
Length of Day
Tomorrow will be .
, % of the Moon is Illuminated

Today's Extremes

State Highs State Lows

Community

WunderPhotos

Upload Photos

1,816,952 photos uploaded!

WunderBlogs® & News

Nearby

Air Quality

  Air Quality AQ Index Pollutant
Not available.

Snow Depth

Station Depth Elevation

Earthquake Activity

City Distance Mag. Time & Date
Minimum magnitude displayed is 2.5.

Coastal Water Temperatures

Place Temperature

Stations

Nearby Weather Stations

Station Location Temp. Windchill Dew Point Humidity Wind Precip. Elev Updated Type